createdAt,value
2017-10-23T00:00:14.938Z,5.80
2017-10-23T00:02:42.570Z,8.43
2017-10-23T00:05:10.158Z,6.23
2017-10-23T00:07:37.800Z,4.20
2017-10-23T00:10:05.394Z,6.20
2017-10-23T00:12:33.063Z,12.50
2017-10-23T00:15:00.663Z,6.10
2017-10-23T00:17:28.393Z,7.23
2017-10-23T00:19:55.982Z,10.00
2017-10-23T00:22:23.635Z,5.97
2017-10-23T00:24:51.272Z,14.23
2017-10-23T00:27:18.863Z,7.03
2017-10-23T00:29:46.527Z,6.17
2017-10-23T00:32:14.115Z,8.87
2017-10-23T00:34:41.752Z,11.73
2017-10-23T00:37:09.347Z,2.47
2017-10-23T00:39:37.783Z,6.47
2017-10-23T00:42:06.463Z,8.33
2017-10-23T00:44:34.090Z,6.90
2017-10-23T00:47:01.683Z,6.30
2017-10-23T00:49:29.313Z,10.70
2017-10-23T00:51:57.018Z,6.30
2017-10-23T00:54:24.654Z,4.13
2017-10-23T00:56:52.773Z,13.17
2017-10-23T00:59:20.393Z,4.97
2017-10-23T01:01:47.995Z,5.50
2017-10-23T01:04:15.591Z,6.10
2017-10-23T01:06:43.220Z,8.20
2017-10-23T01:09:11.667Z,4.83
2017-10-23T01:11:39.271Z,4.97
2017-10-23T01:14:06.868Z,5.97
2017-10-23T01:16:34.502Z,7.67
2017-10-23T01:19:02.097Z,5.07
2017-10-23T01:21:29.731Z,7.50
2017-10-23T01:23:57.334Z,11.00
2017-10-23T01:26:24.967Z,4.30
2017-10-23T01:28:52.547Z,9.67
2017-10-23T01:31:20.174Z,7.10
2017-10-23T01:33:47.768Z,3.63
2017-10-23T01:36:15.383Z,8.83
2017-10-23T01:38:43.054Z,9.90
2017-10-23T01:41:10.653Z,6.17
2017-10-23T01:43:38.281Z,7.20
2017-10-23T01:46:07.093Z,6.90
2017-10-23T01:48:34.711Z,6.53
2017-10-23T01:51:02.306Z,7.33
2017-10-23T01:53:29.927Z,10.70
2017-10-23T01:55:57.515Z,6.50
2017-10-23T01:58:25.156Z,6.10
2017-10-23T02:00:52.731Z,7.33
2017-10-23T02:03:20.380Z,7.63
2017-10-23T02:05:47.978Z,7.70
2017-10-23T02:08:15.611Z,4.90
2017-10-23T02:10:44.074Z,6.63
2017-10-23T02:13:11.759Z,7.67
2017-10-23T02:15:39.361Z,5.43
2017-10-23T02:18:06.995Z,5.57
2017-10-23T02:20:34.592Z,10.60
2017-10-23T02:23:02.966Z,6.47
2017-10-23T02:25:30.595Z,3.30
2017-10-23T02:27:58.170Z,5.93
2017-10-23T02:30:25.825Z,9.20
2017-10-23T02:32:53.409Z,6.87
2017-10-23T02:35:21.045Z,10.00
2017-10-23T02:37:48.642Z,4.67
2017-10-23T02:40:16.261Z,6.63
2017-10-23T02:42:43.864Z,5.90
2017-10-23T02:45:11.482Z,6.50
2017-10-23T02:47:39.888Z,8.40
2017-10-23T02:50:07.531Z,4.03
2017-10-23T02:52:35.120Z,5.07
2017-10-23T02:55:02.743Z,5.70
2017-10-23T02:57:30.871Z,6.97
2017-10-23T02:59:58.490Z,4.57
2017-10-23T03:02:26.096Z,5.60
2017-10-23T03:04:53.736Z,10.47
2017-10-23T03:07:21.399Z,7.23
2017-10-23T03:09:49.015Z,5.10
2017-10-23T03:12:16.607Z,8.93
2017-10-23T03:14:44.273Z,7.80
2017-10-23T03:17:11.835Z,9.93
2017-10-23T03:19:39.467Z,4.93
2017-10-23T03:22:07.050Z,6.60
2017-10-23T03:24:34.677Z,5.60
2017-10-23T03:27:02.271Z,5.83
2017-10-23T03:29:29.891Z,6.23
2017-10-23T03:31:57.464Z,7.87
2017-10-23T03:34:26.286Z,4.83
2017-10-23T03:36:53.867Z,5.37
2017-10-23T03:39:21.494Z,10.73
2017-10-23T03:41:49.112Z,5.77
2017-10-23T03:44:16.732Z,5.00
2017-10-23T03:46:44.317Z,8.83
2017-10-23T03:49:11.931Z,4.30
2017-10-23T03:51:39.625Z,11.57
2017-10-23T03:54:07.305Z,3.27
2017-10-23T03:56:34.905Z,5.20
2017-10-23T03:59:02.618Z,2.47
2017-10-23T04:01:30.204Z,7.57
2017-10-23T04:03:57.807Z,6.47
2017-10-23T04:06:25.399Z,4.70
2017-10-23T04:08:53.078Z,5.70
2017-10-23T04:11:20.675Z,3.93
2017-10-23T04:13:48.949Z,9.13
2017-10-23T04:16:16.575Z,7.67
2017-10-23T04:18:44.196Z,3.90
2017-10-23T04:21:11.789Z,10.07
2017-10-23T04:23:39.425Z,4.47
2017-10-23T04:26:07.666Z,6.47
2017-10-23T04:28:35.279Z,6.33
2017-10-23T04:31:02.871Z,7.57
2017-10-23T04:33:30.488Z,9.70
2017-10-23T04:35:58.083Z,4.77
2017-10-23T04:38:25.707Z,8.27
2017-10-23T04:40:53.300Z,7.60
2017-10-23T04:43:20.906Z,7.20
2017-10-23T04:45:48.520Z,3.90
2017-10-23T04:48:16.140Z,16.23
2017-10-23T04:50:43.770Z,3.73
2017-10-23T04:53:11.375Z,6.40
2017-10-23T04:55:39.006Z,5.33
2017-10-23T04:58:06.587Z,3.80
2017-10-23T05:00:34.206Z,6.17
2017-10-23T05:03:01.785Z,5.33
2017-10-23T05:05:29.406Z,4.67
2017-10-23T05:07:57.023Z,4.50
2017-10-23T05:10:24.629Z,2.90
2017-10-23T05:12:52.250Z,3.37
2017-10-23T05:15:19.855Z,4.53
2017-10-23T05:17:47.484Z,6.30
2017-10-23T05:20:15.065Z,4.27
2017-10-23T05:22:42.723Z,6.50
2017-10-23T05:25:10.328Z,4.30
2017-10-23T05:27:37.987Z,5.93
2017-10-23T05:30:05.550Z,4.90
2017-10-23T05:32:33.176Z,7.73
2017-10-23T05:35:00.748Z,4.77
2017-10-23T05:37:28.389Z,4.00
2017-10-23T05:39:56.014Z,4.90
2017-10-23T05:42:23.725Z,6.50
2017-10-23T05:44:51.446Z,3.60
2017-10-23T05:47:19.039Z,6.73
2017-10-23T05:49:46.696Z,6.07
2017-10-23T05:52:14.902Z,4.20
2017-10-23T05:54:42.482Z,6.83
2017-10-23T05:57:10.117Z,6.67
2017-10-23T05:59:37.706Z,6.17
2017-10-23T06:02:05.310Z,11.27
2017-10-23T06:04:32.918Z,5.10
2017-10-23T06:07:00.596Z,6.83
2017-10-23T06:09:28.361Z,6.43
2017-10-23T06:11:55.962Z,4.03
2017-10-23T06:14:23.533Z,4.70
2017-10-23T06:16:51.247Z,6.80
2017-10-23T06:19:18.826Z,7.03
2017-10-23T06:21:46.458Z,2.60
2017-10-23T06:24:14.088Z,5.43
2017-10-23T06:26:41.683Z,10.07
2017-10-23T06:29:09.304Z,4.83
2017-10-23T06:31:36.946Z,9.50
2017-10-23T06:34:04.561Z,2.93
2017-10-23T06:36:32.198Z,6.80
2017-10-23T06:38:59.888Z,5.77
2017-10-23T06:41:27.500Z,6.70
2017-10-23T06:43:55.139Z,5.90
2017-10-23T06:46:22.758Z,7.90
2017-10-23T06:48:50.362Z,7.80
2017-10-23T06:51:17.990Z,6.50
2017-10-23T06:53:45.566Z,8.03
2017-10-23T06:56:13.180Z,5.80
2017-10-23T06:58:40.854Z,4.33
2017-10-23T07:01:08.477Z,6.00
2017-10-23T07:03:36.061Z,5.53
2017-10-23T07:06:03.742Z,3.07
2017-10-23T07:08:31.315Z,9.00
2017-10-23T07:10:59.591Z,8.53
2017-10-23T07:13:28.058Z,11.27
2017-10-23T07:15:55.668Z,4.23
2017-10-23T07:18:23.302Z,5.97
2017-10-23T07:20:50.911Z,5.33
2017-10-23T07:23:18.562Z,6.37
2017-10-23T07:25:46.177Z,7.10
2017-10-23T07:28:13.843Z,7.90
2017-10-23T07:30:42.682Z,6.90
2017-10-23T07:33:10.288Z,6.77
2017-10-23T07:35:37.887Z,3.27
2017-10-23T07:38:05.510Z,6.30
2017-10-23T07:40:33.120Z,5.30
2017-10-23T07:43:00.775Z,5.23
2017-10-23T07:45:28.515Z,5.60
2017-10-23T07:47:56.175Z,3.90
2017-10-23T07:50:23.771Z,5.67
2017-10-23T07:52:51.519Z,2.87
2017-10-23T07:55:19.115Z,12.53
2017-10-23T07:57:46.740Z,4.77
2017-10-23T08:00:14.331Z,4.27
2017-10-23T08:02:41.968Z,5.70
2017-10-23T08:05:09.570Z,5.43
2017-10-23T08:07:37.194Z,5.10
2017-10-23T08:10:04.788Z,8.13
2017-10-23T08:12:32.419Z,7.27
2017-10-23T08:15:00.023Z,5.80
2017-10-23T08:17:27.642Z,5.00
2017-10-23T08:19:55.254Z,4.47
2017-10-23T08:22:22.911Z,4.20
2017-10-23T08:24:50.498Z,5.77
2017-10-23T08:27:18.125Z,6.67
2017-10-23T08:29:45.764Z,9.03
2017-10-23T08:32:13.392Z,6.20
2017-10-23T08:34:40.982Z,4.90
2017-10-23T08:37:08.663Z,5.73
2017-10-23T08:39:36.264Z,3.30
2017-10-23T08:42:03.879Z,4.23
2017-10-23T08:44:31.504Z,5.90
2017-10-23T08:46:59.110Z,5.90
2017-10-23T08:49:26.764Z,8.17
2017-10-23T08:51:54.375Z,5.03
2017-10-23T08:54:22.093Z,6.53
2017-10-23T08:56:49.681Z,3.03
2017-10-23T08:59:17.316Z,4.60
2017-10-23T09:01:44.926Z,4.33
2017-10-23T09:04:12.546Z,5.23
2017-10-23T09:06:40.143Z,6.50
2017-10-23T09:09:07.792Z,5.00
2017-10-23T09:11:35.406Z,3.33
2017-10-23T09:14:03.198Z,3.60
2017-10-23T09:16:30.780Z,3.93
2017-10-23T09:18:58.418Z,4.20
2017-10-23T09:21:26.006Z,2.90
2017-10-23T09:23:53.630Z,2.00
2017-10-23T09:26:21.244Z,2.73
2017-10-23T09:28:48.873Z,4.67
2017-10-23T09:31:16.467Z,6.33
2017-10-23T09:33:44.096Z,5.20
2017-10-23T09:36:11.706Z,8.80
2017-10-23T09:38:39.367Z,3.57
2017-10-23T09:41:07.032Z,6.27
2017-10-23T09:43:34.763Z,6.50
2017-10-23T09:46:02.379Z,3.43
2017-10-23T09:48:30.047Z,3.63
2017-10-23T09:50:57.647Z,7.93
2017-10-23T09:53:25.310Z,2.50
2017-10-23T09:55:52.958Z,6.57
2017-10-23T09:58:20.595Z,4.27
2017-10-23T10:00:48.220Z,4.40
2017-10-23T10:03:15.824Z,2.77
2017-10-23T10:05:43.443Z,4.53
2017-10-23T10:08:11.063Z,3.17
2017-10-23T10:10:38.726Z,6.07
2017-10-23T10:13:06.455Z,6.90
2017-10-23T10:15:34.125Z,3.23
2017-10-23T10:18:01.740Z,4.73
2017-10-23T10:20:29.366Z,3.63
2017-10-23T10:22:56.968Z,6.47
2017-10-23T10:25:24.599Z,6.23
2017-10-23T10:27:52.326Z,6.47
2017-10-23T10:30:20.003Z,5.70
2017-10-23T10:32:47.665Z,4.20
2017-10-23T10:35:15.274Z,5.23
2017-10-23T10:37:42.921Z,5.73
2017-10-23T10:40:10.529Z,9.10
2017-10-23T10:42:38.182Z,6.30
2017-10-23T10:45:05.828Z,12.73
2017-10-23T10:47:33.451Z,4.60
2017-10-23T10:50:01.076Z,5.10
2017-10-23T10:52:28.726Z,4.97
2017-10-23T10:54:56.331Z,3.50
2017-10-23T10:57:23.989Z,6.00
2017-10-23T10:59:51.587Z,5.33
2017-10-23T11:02:19.225Z,4.17
2017-10-23T11:04:46.891Z,3.00
2017-10-23T11:07:14.527Z,11.70
2017-10-23T11:09:42.127Z,5.43
2017-10-23T11:12:09.864Z,6.70
2017-10-23T11:14:37.472Z,3.80
2017-10-23T11:17:05.083Z,4.00
2017-10-23T11:19:32.770Z,3.87
2017-10-23T11:22:00.390Z,4.60
2017-10-23T11:24:28.029Z,8.33
2017-10-23T11:26:55.746Z,5.53
2017-10-23T11:29:23.339Z,6.17
2017-10-23T11:31:51.011Z,7.30
2017-10-23T11:34:18.582Z,11.40
2017-10-23T11:36:46.359Z,5.70
2017-10-23T11:39:13.990Z,3.33
2017-10-23T11:41:41.631Z,5.00
2017-10-23T11:44:09.275Z,6.13
2017-10-23T11:46:36.919Z,6.27
2017-10-23T11:49:04.534Z,6.33
2017-10-23T11:51:32.190Z,6.10
2017-10-23T11:53:59.891Z,7.13
2017-10-23T11:56:27.521Z,8.70
2017-10-23T11:58:55.164Z,6.07
2017-10-23T12:01:22.921Z,5.20
2017-10-23T12:03:50.510Z,4.20
2017-10-23T12:06:18.167Z,5.50
2017-10-23T12:08:45.766Z,4.17
2017-10-23T12:11:13.366Z,10.20
2017-10-23T12:13:41.011Z,5.50
2017-10-23T12:16:08.745Z,5.60
2017-10-23T12:18:36.358Z,5.50
2017-10-23T12:21:04.006Z,17.73
2017-10-23T12:23:31.638Z,5.87
2017-10-23T12:25:59.379Z,12.30
2017-10-23T12:28:27.019Z,6.17
2017-10-23T12:30:54.671Z,5.00
2017-10-23T12:33:22.274Z,7.33
2017-10-23T12:35:49.923Z,11.70
2017-10-23T12:38:17.542Z,5.73
2017-10-23T12:40:45.174Z,4.63
2017-10-23T12:43:12.834Z,5.83
2017-10-23T12:45:40.521Z,10.40
2017-10-23T12:48:08.127Z,6.87
2017-10-23T12:50:35.762Z,4.80
2017-10-23T12:53:03.376Z,8.80
2017-10-23T12:55:31.033Z,3.40
2017-10-23T12:57:58.636Z,5.60
2017-10-23T13:00:26.272Z,4.73
2017-10-23T13:02:53.892Z,6.07
2017-10-23T13:05:21.596Z,7.13
2017-10-23T13:07:49.255Z,10.17
2017-10-23T13:10:16.884Z,5.80
2017-10-23T13:12:44.510Z,4.33
2017-10-23T13:15:12.130Z,5.50
2017-10-23T13:17:39.778Z,4.53
2017-10-23T13:20:07.393Z,4.27
2017-10-23T13:22:35.032Z,5.40
2017-10-23T13:25:02.662Z,5.33
2017-10-23T13:27:30.275Z,5.00
2017-10-23T13:29:57.907Z,7.10
2017-10-23T13:32:25.531Z,5.30
2017-10-23T13:34:53.155Z,7.47
2017-10-23T13:37:20.790Z,4.73
2017-10-23T13:39:48.410Z,4.30
2017-10-23T13:42:16.113Z,5.60
2017-10-23T13:44:43.730Z,7.13
2017-10-23T13:47:11.393Z,3.70
2017-10-23T13:49:39.004Z,6.23
2017-10-23T13:52:06.769Z,2.90
2017-10-23T13:54:34.422Z,6.80
2017-10-23T13:57:02.054Z,9.13
2017-10-23T13:59:29.707Z,3.33
2017-10-23T14:01:57.404Z,11.00
2017-10-23T14:04:25.046Z,4.80
2017-10-23T14:06:52.685Z,5.27
2017-10-23T14:09:20.339Z,2.97
2017-10-23T14:11:47.938Z,4.50
2017-10-23T14:14:15.587Z,7.17
2017-10-23T14:16:43.281Z,7.23
2017-10-23T14:19:10.929Z,6.50
2017-10-23T14:21:38.549Z,6.50
2017-10-23T14:24:06.199Z,11.20
2017-10-23T14:26:33.787Z,4.60
2017-10-23T14:29:01.414Z,6.87
2017-10-23T14:31:29.004Z,4.30
2017-10-23T14:33:56.611Z,6.30
2017-10-23T14:36:24.352Z,7.00
2017-10-23T14:38:52.000Z,3.27
2017-10-23T14:41:19.622Z,7.03
2017-10-23T14:43:47.233Z,3.50
2017-10-23T14:46:14.855Z,8.30
2017-10-23T14:48:42.462Z,3.53
2017-10-23T14:51:10.107Z,8.03
2017-10-23T14:53:37.724Z,4.33
2017-10-23T14:56:05.360Z,4.77
2017-10-23T14:58:32.955Z,4.13
2017-10-23T15:01:00.624Z,4.47
2017-10-23T15:03:28.219Z,5.73
2017-10-23T15:05:55.866Z,3.20
2017-10-23T15:08:23.489Z,5.80
2017-10-23T15:10:51.125Z,4.60
2017-10-23T15:13:18.746Z,4.27
2017-10-23T15:15:46.452Z,5.47
2017-10-23T15:18:14.043Z,7.47
2017-10-23T15:20:41.680Z,9.20
2017-10-23T15:23:09.290Z,4.53
2017-10-23T15:25:36.935Z,2.50
2017-10-23T15:28:04.538Z,2.70
2017-10-23T15:30:32.166Z,5.73
2017-10-23T15:32:59.806Z,8.23
2017-10-23T15:35:27.476Z,5.30
2017-10-23T15:37:55.086Z,3.67
2017-10-23T15:40:22.704Z,6.83
2017-10-23T15:42:50.419Z,11.90
2017-10-23T15:45:18.050Z,3.77
2017-10-23T15:47:45.691Z,3.27
2017-10-23T15:50:13.306Z,9.80
2017-10-23T15:52:40.959Z,6.07
2017-10-23T15:55:08.583Z,3.03
2017-10-23T15:57:36.270Z,5.77
2017-10-23T16:00:03.900Z,8.17
2017-10-23T16:02:31.606Z,5.80
2017-10-23T16:04:59.243Z,6.97
2017-10-23T16:07:26.898Z,5.27
2017-10-23T16:09:54.493Z,7.20
2017-10-23T16:12:22.122Z,5.60
2017-10-23T16:14:49.742Z,11.00
2017-10-23T16:17:17.372Z,13.00
2017-10-23T16:19:44.974Z,5.03
2017-10-23T16:22:12.600Z,6.93
2017-10-23T16:24:40.189Z,8.67
2017-10-23T16:27:08.632Z,27.13
2017-10-23T16:29:36.231Z,5.97
2017-10-23T16:32:03.858Z,6.70
2017-10-23T16:34:32.401Z,5.60
2017-10-23T16:37:00.166Z,7.00
2017-10-23T16:39:27.752Z,5.63
2017-10-23T16:41:55.385Z,6.17
2017-10-23T16:44:23.029Z,6.60
2017-10-23T16:46:50.808Z,4.40
2017-10-23T16:49:18.395Z,5.23
2017-10-23T16:51:45.994Z,8.87
2017-10-23T16:54:13.634Z,7.00
2017-10-23T16:56:41.273Z,4.33
2017-10-23T16:59:08.961Z,7.60
2017-10-23T17:01:36.568Z,7.60
2017-10-23T17:04:04.186Z,9.07
2017-10-23T17:06:31.787Z,8.17
2017-10-23T17:08:59.540Z,10.73
2017-10-23T17:11:27.156Z,12.93
2017-10-23T17:13:54.803Z,9.40
2017-10-23T17:16:22.456Z,9.63
2017-10-23T17:18:50.110Z,11.00
2017-10-23T17:21:17.748Z,5.00
2017-10-23T17:23:45.398Z,9.27
2017-10-23T17:26:13.035Z,9.60
2017-10-23T17:28:40.678Z,9.17
2017-10-23T17:31:08.291Z,6.00
2017-10-23T17:33:35.948Z,11.70
2017-10-23T17:36:03.544Z,7.90
2017-10-23T17:38:31.182Z,11.70
2017-10-23T17:40:58.838Z,14.63
2017-10-23T17:43:26.483Z,8.10
2017-10-23T17:45:54.151Z,6.73
2017-10-23T17:48:21.806Z,8.73
2017-10-23T17:50:49.410Z,6.63
2017-10-23T17:53:17.056Z,10.20
2017-10-23T17:55:44.681Z,9.70
2017-10-23T17:58:12.302Z,6.93
2017-10-23T18:00:39.955Z,6.67
2017-10-23T18:03:09.271Z,6.30
2017-10-23T18:05:36.932Z,8.83
2017-10-23T18:08:04.594Z,6.47
2017-10-23T18:10:32.239Z,8.20
2017-10-23T18:12:59.864Z,16.03
2017-10-23T18:15:27.507Z,7.47
2017-10-23T18:17:55.131Z,8.57
2017-10-23T18:20:23.431Z,9.00
2017-10-23T18:22:51.042Z,7.93
2017-10-23T18:25:18.698Z,43.77
2017-10-23T18:27:46.306Z,23.03
2017-10-23T18:30:13.955Z,12.33
2017-10-23T18:32:41.557Z,8.90
2017-10-23T18:35:09.196Z,9.00
2017-10-23T18:37:36.782Z,6.53
2017-10-23T18:40:04.426Z,8.33
2017-10-23T18:42:32.051Z,16.07
2017-10-23T18:44:59.719Z,6.07
2017-10-23T18:47:27.369Z,6.60
2017-10-23T18:49:55.031Z,6.37
2017-10-23T18:52:22.651Z,8.00
2017-10-23T18:54:51.162Z,11.53
2017-10-23T18:57:18.790Z,6.10
2017-10-23T18:59:46.419Z,6.07
2017-10-23T19:02:14.053Z,7.17
2017-10-23T19:04:41.690Z,9.00
2017-10-23T19:07:09.304Z,8.10
2017-10-23T19:09:36.916Z,88.43
2017-10-23T19:12:04.582Z,16.83
2017-10-23T19:14:32.206Z,7.63
2017-10-23T19:16:59.855Z,10.20
2017-10-23T19:19:27.480Z,8.53
2017-10-23T19:21:55.150Z,8.03
2017-10-23T19:24:23.403Z,13.90
2017-10-23T19:26:51.088Z,8.50
2017-10-23T19:29:18.718Z,8.57
2017-10-23T19:31:46.366Z,9.57
2017-10-23T19:34:13.999Z,5.47
2017-10-23T19:36:41.661Z,8.70
2017-10-23T19:39:09.333Z,8.50
2017-10-23T19:41:37.116Z,17.60
2017-10-23T19:44:04.755Z,14.03
2017-10-23T19:46:32.400Z,8.50
2017-10-23T19:48:59.992Z,10.47
2017-10-23T19:51:27.740Z,35.10
2017-10-23T19:53:55.363Z,19.33
2017-10-23T19:56:23.015Z,8.13
2017-10-23T19:58:50.654Z,40.30
2017-10-23T20:01:18.332Z,30.60
2017-10-23T20:03:45.955Z,148.17
2017-10-23T20:06:13.612Z,367.17
2017-10-23T20:08:41.238Z,1112.33
2017-10-23T20:11:09.987Z,1999.90
2017-10-23T20:13:37.620Z,724.20
2017-10-23T20:16:05.282Z,131.30
2017-10-23T20:18:32.893Z,46.13
2017-10-23T20:21:00.563Z,36.73
2017-10-23T20:23:28.182Z,14.90
2017-10-23T20:25:55.829Z,7.40
2017-10-23T20:28:23.478Z,5.33
2017-10-23T20:30:51.143Z,5.30
2017-10-23T20:33:18.749Z,4.37
2017-10-23T20:35:46.381Z,4.27
2017-10-23T20:38:13.976Z,5.53
2017-10-23T20:40:41.632Z,3.73
2017-10-23T20:43:09.243Z,8.40
2017-10-23T20:45:36.888Z,5.60
2017-10-23T20:48:04.490Z,6.90
2017-10-23T20:50:32.139Z,8.43
2017-10-23T20:52:59.738Z,5.23
2017-10-23T20:55:27.381Z,6.70
2017-10-23T20:57:55.024Z,5.90
2017-10-23T21:00:22.673Z,9.33
2017-10-23T21:02:51.502Z,7.53
2017-10-23T21:05:19.126Z,5.90
2017-10-23T21:07:46.721Z,3.93
2017-10-23T21:10:14.378Z,6.57
2017-10-23T21:12:42.065Z,6.80
2017-10-23T21:15:09.728Z,6.00
2017-10-23T21:17:37.351Z,5.27
2017-10-23T21:20:05.096Z,9.90
2017-10-23T21:22:32.715Z,6.87
2017-10-23T21:25:00.363Z,7.53
2017-10-23T21:27:27.985Z,6.23
2017-10-23T21:29:55.755Z,5.50
2017-10-23T21:32:23.346Z,4.93
2017-10-23T21:34:50.966Z,4.53
2017-10-23T21:37:18.598Z,5.07
2017-10-23T21:39:46.190Z,4.97
2017-10-23T21:42:13.819Z,6.30
2017-10-23T21:44:41.429Z,5.20
2017-10-23T21:47:10.308Z,5.10
2017-10-23T21:49:38.028Z,4.80
2017-10-23T21:52:05.654Z,4.73
2017-10-23T21:54:33.289Z,4.83
2017-10-23T21:57:00.956Z,4.67
2017-10-23T21:59:28.596Z,7.77
2017-10-23T22:01:56.268Z,9.60
2017-10-23T22:04:23.888Z,10.07
2017-10-23T22:06:51.531Z,10.27
2017-10-23T22:09:19.150Z,11.23
2017-10-23T22:11:46.785Z,12.23
2017-10-23T22:14:14.410Z,9.93
2017-10-23T22:16:42.044Z,10.07
2017-10-23T22:19:09.635Z,9.00
2017-10-23T22:21:37.282Z,11.57
2017-10-23T22:24:04.894Z,12.40
2017-10-23T22:26:32.513Z,7.30
2017-10-23T22:29:00.154Z,14.90
2017-10-23T22:31:27.795Z,9.60
2017-10-23T22:33:55.410Z,10.60
2017-10-23T22:36:23.070Z,10.13
2017-10-23T22:38:50.666Z,8.10
2017-10-23T22:41:18.285Z,7.37
2017-10-23T22:43:45.950Z,7.23
2017-10-23T22:46:13.550Z,11.03
2017-10-23T22:48:41.195Z,10.83
2017-10-23T22:51:08.798Z,10.60
2017-10-23T22:53:36.451Z,10.70
2017-10-23T22:56:04.050Z,9.70
2017-10-23T22:58:31.834Z,7.97
2017-10-23T23:00:59.427Z,6.83
2017-10-23T23:03:27.059Z,7.03
2017-10-23T23:05:54.642Z,7.00
2017-10-23T23:08:22.293Z,8.67
2017-10-23T23:10:49.886Z,9.20
2017-10-23T23:13:17.519Z,6.33
2017-10-23T23:15:45.203Z,6.13
2017-10-23T23:18:14.035Z,11.03
2017-10-23T23:20:41.643Z,7.03
2017-10-23T23:23:09.264Z,8.43
2017-10-23T23:25:36.863Z,9.13
2017-10-23T23:28:04.644Z,8.20
2017-10-23T23:30:32.269Z,8.50
2017-10-23T23:32:59.918Z,9.60
2017-10-23T23:35:27.536Z,7.33
2017-10-23T23:37:55.147Z,7.67
2017-10-23T23:40:22.784Z,7.80
2017-10-23T23:42:50.370Z,7.10
2017-10-23T23:45:18.009Z,9.53
2017-10-23T23:47:45.600Z,7.80
2017-10-23T23:50:13.220Z,9.83
2017-10-23T23:52:40.827Z,10.10
2017-10-23T23:55:09.950Z,10.03
2017-10-23T23:57:37.567Z,10.27
